Latest Weather Observations for Moranbah Airport

IDQ60801

Issued at 5:32 pm EST Saturday 22 September 2018 (issued every 10 minutes, with the page automatically refreshed every 10 minutes)

About weather observations | Map of weather stations | Latest weather observations for QLD | Other Formats
Station Details ID: 034035 Name: MORANBAH AIRPORT Lat: -22.06 Lon: 148.08 Height: 232.2 m
Data from the previous 72 hours. | See also: Recent months at Moranbah Airport
Date/Time
EST
Temp
°C
App
Temp
°C
Dew
Point
°C
Rel
Hum
%
Delta-T
°C
Wind Press
QNH
hPa
Press
MSL
hPa
Rain since
9am
mm
Dir  Spd
km/h
Gust
km/h
Spd
kts
Gust
kts
22/05:30pm 25.1 20.6 6.8 31 9.6 ENE 20 28 11 15 1021.0 1020.2 0.0
22/05:00pm 25.9 20.5 6.5 29 10.2 E 24 32 13 17 1020.7 1019.9 0.0
22/04:30pm 26.3 21.4 6.9 29 10.3 E 22 35 12 19 1020.5 1019.7 0.0
22/04:00pm 27.1 22.8 7.0 28 10.7 ESE 19 30 10 16 1020.3 1019.5 0.0
22/03:30pm 27.1 22.2 7.0 28 10.8 ESE 22 35 12 19 1020.4 1019.6 0.0
22/03:00pm 27.5 22.3 7.4 28 10.8 ENE 24 35 13 19 1020.4 1019.6 0.0
22/02:30pm 27.3 22.1 7.2 28 10.8 E 24 39 13 21 1020.5 1019.7 0.0
22/02:00pm 26.7 21.4 6.7 28 10.6 E 24 37 13 20 1021.1 1020.3 0.0
22/01:30pm 27.3 22.5 7.2 28 10.8 E 22 41 12 22 1021.6 1020.7 0.0
22/01:00pm 26.5 20.3 6.0 27 10.7 E 28 41 15 22 1022.0 1021.1 0.0
22/12:34pm 26.6 20.2 5.0 25 11.1 ESE 28 46 15 25 1022.4 1021.5 0.0
22/12:30pm 26.9 21.6 5.2 25 11.2 ESE 22 35 12 19 1022.5 1021.6 0.0
22/12:16pm 25.5 19.1 5.1 27 10.5 E 28 46 15 25 1022.8 1021.9 0.0
22/12:00pm 26.0 20.5 6.1 28 10.4 E 24 39 13 21 1023.1 1022.2 0.0
22/11:53am 25.5 18.8 5.7 28 10.3 ESE 30 48 16 26 1023.4 1022.6 0.0
22/11:34am 26.2 19.3 4.6 25 11.0 E 30 50 16 27 1023.8 1023.0 0.0
22/11:32am 26.4 19.9 4.8 25 11.1 E 28 50 15 27 1023.6 1022.8 0.0
22/11:30am 25.4 18.8 4.0 25 10.7 E 28 43 15 23 1023.8 1023.0 0.0
22/11:00am 25.1 18.0 3.7 25 10.6 ESE 30 41 16 22 1024.4 1023.6 0.0
22/10:30am 24.5 18.0 6.3 31 9.5 ESE 30 48 16 26 1024.7 1023.9 0.0
22/10:02am 23.8 16.6 5.2 30 9.4 ESE 32 50 17 27 1025.1 1024.3 0.0
22/10:00am 23.2 15.7 4.7 30 9.2 ESE 33 50 18 27 1025.1 1024.3 0.0
22/09:30am 23.0 17.4 8.7 40 7.7 E 28 39 15 21 1025.4 1024.6 0.0
22/09:00am 21.7 16.0 11.1 51 5.9 ESE 32 48 17 26 1025.6 1024.8 0.0
22/08:30am 20.8 16.1 12.0 57 5.0 ESE 28 37 15 20 1025.7 1024.9 0.0
22/08:00am 19.0 13.4 11.6 62 4.1 ESE 32 39 17 21 1025.2 1024.4 0.0
22/07:30am 18.5 14.4 11.6 64 3.8 SE 24 35 13 19 1025.1 1024.3 0.0
22/07:00am 16.8 13.1 11.5 71 2.9 SE 22 28 12 15 1024.4 1023.6 0.0
22/06:30am 15.2 12.4 11.4 78 2.1 SE 17 20 9 11 1024.1 1023.3 0.0
22/06:00am 14.3 11.9 11.3 82 1.6 SE 15 19 8 10 1024.0 1023.2 0.0
22/05:30am 13.9 11.7 10.7 81 1.7 SE 13 17 7 9 1023.5 1022.7 0.0
22/05:00am 13.9 11.3 10.7 81 1.7 SE 15 17 8 9 1023.0 1022.1 0.0
22/04:30am 14.3 11.3 10.7 79 1.9 SE 17 19 9 10 1022.9 1022.0 0.0
22/04:00am 14.4 11.5 11.0 80 1.8 SE 17 20 9 11 1022.9 1022.0 0.0
22/03:30am 13.8 11.4 10.2 79 1.9 SE 13 15 7 8 1022.7 1021.8 0.0
22/03:00am 14.3 11.6 10.5 78 2.0 SE 15 17 8 9 1022.8 1021.9 0.0
22/02:30am 14.7 11.7 10.7 77 2.1 SE 17 19 9 10 1023.1 1022.2 0.0
22/02:00am 14.5 12.2 10.3 76 2.2 SSE 13 15 7 8 1023.2 1022.4 0.0
22/01:30am 15.0 12.7 10.4 74 2.4 SE 13 15 7 8 1023.3 1022.5 0.0
22/01:00am 14.8 12.3 9.8 72 2.6 SSE 13 15 7 8 1023.7 1022.9 0.0
22/12:30am 14.9 12.3 9.3 69 2.9 SSE 13 15 7 8 1023.8 1023.0 0.0
22/12:00am 15.5 13.4 9.6 68 3.1 SSE 11 13 6 7 1023.8 1023.0 0.0
 
Date/Time
EST
Temp
°C
App
Temp
°C
Dew
Point
°C
Rel
Hum
%
Delta-T
°C
Wind Press
QNH
hPa
Press
MSL
hPa
Rain since
9am
mm
Dir  Spd
km/h
Gust
km/h
Spd
kts
Gust
kts
21/11:30pm 15.5 13.1 10.1 70 2.9 SE 13 15 7 8 1023.9 1023.1 0.0
21/11:00pm 15.9 13.9 10.0 68 3.1 SE 11 13 6 7 1023.8 1023.0 0.0
21/10:30pm 17.4 15.4 10.3 63 3.8 E 11 13 6 7 1023.6 1022.8 0.0
21/10:00pm 18.6 16.5 11.2 62 4.1 E 13 17 7 9 1023.6 1022.8 0.0
21/09:30pm 19.1 16.1 10.6 58 4.6 E 17 20 9 11 1023.4 1022.6 0.0
21/09:00pm 19.0 15.1 7.1 46 6.1 E 17 20 9 11 1023.1 1022.2 0.0
21/08:30pm 19.5 14.3 2.4 32 8.0 E 19 26 10 14 1022.8 1021.9 0.0
21/08:00pm 20.2 13.7 -6.4 16 10.4 ESE 20 28 11 15 1022.2 1021.3 0.0
21/07:30pm 19.2 13.4 -8.9 14 10.4 SSE 15 15 8 8 1021.2 1020.4 0.0
21/07:00pm 19.9 14.0 -9.3 13 10.8 SSE 15 15 8 8 1020.8 1020.0 0.0
21/06:30pm 20.8 14.9 -9.6 12 11.3 SSE 15 17 8 9 1020.3 1019.5 0.0
21/06:00pm 23.2 17.3 -10.1 10 12.6 SE 15 20 8 11 1019.8 1019.0 0.0
21/05:30pm 25.8 18.6 -9.4 9 13.9 SE 22 33 12 18 1019.5 1018.7 0.0
21/05:00pm 26.9 19.4 -8.6 9 14.3 SE 24 32 13 17 1019.3 1018.4 0.0
21/04:30pm 27.2 19.7 -8.4 9 14.5 SE 24 35 13 19 1019.1 1018.2 0.0
21/04:00pm 27.4 19.5 -8.2 9 14.5 SSE 26 33 14 18 1018.8 1017.9 0.0
21/03:30pm 27.5 20.0 -8.2 9 14.6 SE 24 35 13 19 1018.6 1017.7 0.0
21/03:00pm 27.2 20.1 -8.4 9 14.4 SE 22 35 12 19 1018.7 1017.8 0.0
21/02:30pm 27.7 19.1 -8.0 9 14.7 SSE 30 41 16 22 1018.8 1017.9 0.0
21/02:00pm 27.2 19.3 -8.4 9 14.4 SE 26 39 14 21 1019.0 1018.1 0.0
21/01:30pm 27.4 19.5 -8.2 9 14.6 SE 26 39 14 21 1019.5 1018.7 0.0
21/01:00pm 26.6 18.7 -8.8 9 14.2 SSE 26 39 14 21 1020.0 1019.2 0.0
21/12:49pm 26.1 17.8 -9.2 9 14.0 ESE 28 46 15 25 1020.3 1019.5 0.0
21/12:30pm 25.8 18.0 -8.1 10 13.7 SE 26 39 14 21 1020.7 1019.9 0.0
21/12:00pm 25.5 17.3 -8.3 10 13.5 ESE 28 39 15 21 1021.4 1020.5 0.0
21/11:30am 24.2 14.9 -9.3 10 13.0 ESE 33 46 18 25 1022.0 1021.1 0.0
21/11:00am 23.9 14.8 -9.5 10 12.8 SE 32 39 17 21 1022.4 1021.5 0.0
21/10:30am 23.9 14.8 -7.2 12 12.5 ESE 33 44 18 24 1022.7 1021.8 0.0
21/10:00am 22.4 12.5 -7.3 13 11.7 SE 37 52 20 28 1022.9 1022.0 0.0
21/09:30am 21.2 11.4 -6.4 15 11.0 SE 37 46 20 25 1023.1 1022.2 0.0
21/09:00am 20.7 11.0 -6.0 16 10.6 ESE 37 46 20 25 1023.1 1022.2 0.0
21/08:30am 19.6 9.1 -6.1 17 10.1 SE 41 52 22 28 1023.1 1022.2 0.0
21/08:00am 18.7 7.6 -6.1 18 9.6 SE 44 56 24 30 1022.9 1022.0 0.0
21/07:30am 17.8 7.7 -5.4 20 9.1 SE 39 54 21 29 1022.7 1021.8 0.0
21/07:00am 16.8 8.1 -5.6 21 8.6 SE 32 41 17 22 1022.3 1021.4 0.0
21/06:30am 15.8 8.9 -5.8 22 8.2 SE 22 28 12 15 1021.8 1020.9 0.0
21/06:00am 15.9 7.9 -5.8 22 8.2 SE 28 33 15 18 1021.2 1020.4 0.0
21/05:30am 16.5 7.5 -5.9 21 8.6 SE 33 44 18 24 1020.6 1019.8 0.0
21/05:00am 16.8 7.8 -6.3 20 8.8 SE 33 43 18 23 1020.1 1019.3 0.0
21/04:30am 17.5 8.5 -6.3 19 9.1 SE 33 48 18 26 1019.6 1018.8 0.0
21/04:00am 17.9 9.1 -6.0 19 9.2 SE 32 43 17 23 1019.1 1018.2 0.0
21/03:30am 18.5 9.5 -6.2 18 9.6 SE 33 43 18 23 1018.9 1018.0 0.0
21/03:00am 19.0 10.5 -6.6 17 9.9 SE 30 43 16 23 1018.6 1017.7 0.0
21/02:30am 19.7 10.8 -6.8 16 10.3 SE 32 41 17 22 1018.3 1017.4 0.0
21/02:00am 20.4 11.9 -7.1 15 10.7 SE 30 37 16 20 1018.1 1017.2 0.0
21/01:30am 21.1 12.6 -6.5 15 11.0 SE 30 48 16 26 1017.9 1017.0 0.0
21/01:25am 21.3 13.2 -6.3 15 11.0 SE 28 48 15 26 1017.8 1016.9 0.0
21/01:00am 21.9 13.5 -5.9 15 11.2 SE 30 35 16 19 1017.8 1016.9 0.0
21/12:52am 22.2 13.2 -6.5 14 11.5 SE 33 52 18 28 1017.8 1016.9 0.0
21/12:30am 23.1 13.7 -6.8 13 12.0 SSE 35 48 19 26 1017.5 1016.6 0.0
21/12:00am 23.6 15.2 -6.4 13 12.2 SSE 30 39 16 21 1017.5 1016.6 0.0
 
Date/Time
EST
Temp
°C
App
Temp
°C
Dew
Point
°C
Rel
Hum
%
Delta-T
°C
Wind Press
QNH
hPa
Press
MSL
hPa
Rain since
9am
mm
Dir  Spd
km/h
Gust
km/h
Spd
kts
Gust
kts
20/11:52pm 23.6 15.6 -5.4 14 12.0 SSE 28 41 15 22 1017.5 1016.6 0.0
20/11:30pm 22.7 17.0 -3.6 17 11.2 SSE 17 20 9 11 1017.5 1016.6 0.0
20/11:00pm 24.5 18.4 -3.8 15 12.2 S 19 30 10 16 1017.4 1016.5 0.0
20/10:30pm 25.9 18.6 -2.7 15 12.8 SSE 26 39 14 21 1017.4 1016.5 0.0
20/10:00pm 24.7 19.8 5.0 28 10.0 SE 20 26 11 14 1017.1 1016.2 0.0
20/09:30pm 23.8 18.9 -0.5 20 11.1 S 15 17 8 9 1017.0 1016.1 0.0
20/09:00pm 25.3 20.6 -1.5 17 12.1 S 13 19 7 10 1016.5 1015.7 0.0
20/08:30pm 26.3 21.6 0.9 19 12.1 SSW 15 20 8 11 1016.2 1015.4 0.0
20/08:00pm 26.6 22.7 3.2 22 11.7 SSW 13 15 7 8 1015.7 1014.9 0.0
20/07:30pm 27.8 23.8 4.8 23 11.9 SW 15 20 8 11 1015.2 1014.3 0.0
20/07:00pm 28.2 25.1 5.7 24 11.8 SW 11 17 6 9 1014.6 1013.7 0.0
20/06:30pm 29.1 25.7 5.9 23 12.3 SW 13 17 7 9 1014.2 1013.3 0.0
20/06:00pm 30.2 26.7 5.5 21 13.1 WSW 13 20 7 11 1013.7 1012.8 0.0
20/05:30pm 32.0 28.9 5.5 19 14.2 WSW 11 17 6 9 1013.1 1012.2 0.0
20/05:00pm 32.5 29.1 5.9 19 14.4 SW 13 20 7 11 1012.9 1012.0 0.0
20/04:30pm 33.0 29.7 6.3 19 14.6 WSW 13 24 7 13 1012.8 1011.9 0.0
20/04:00pm 33.2 30.5 7.2 20 14.4 WSW 11 20 6 11 1012.7 1011.8 0.0
20/03:30pm 33.2 30.1 7.2 20 14.4 W 13 20 7 11 1012.8 1011.9 0.0
20/03:00pm 33.1 30.7 8.5 22 13.9 SSE 11 24 6 13 1012.9 1012.0 0.0
20/02:30pm 32.3 29.0 7.9 22 13.6 SW 15 26 8 14 1013.2 1012.3 0.0
20/02:00pm 31.4 28.6 8.4 24 12.9 NNW 13 20 7 11 1013.7 1012.8 0.0
20/01:30pm 31.0 28.5 8.1 24 12.7 WSW 11 19 6 10 1014.3 1013.4 0.0
20/01:00pm 31.0 29.0 8.7 25 12.5 NNW 9 17 5 9 1014.7 1013.8 0.0
20/12:30pm 31.0 28.6 8.7 25 12.5 SSW 11 20 6 11 1015.4 1014.5 0.0
20/12:00pm 29.0 26.7 7.6 26 11.7 N 9 17 5 9 1015.9 1015.1 0.0
20/11:30am 29.2 26.6 7.7 26 11.8 NW 11 17 6 9 1016.5 1015.7 0.0
20/11:00am 28.2 26.3 7.4 27 11.3 N 7 13 4 7 1017.1 1016.2 0.0
20/10:30am 26.5 24.7 8.0 31 10.0 N 7 15 4 8 1017.4 1016.5 0.0
20/10:00am 25.4 22.6 8.4 34 9.2 NNW 13 20 7 11 1017.5 1016.6 0.0
20/09:30am 24.3 21.5 8.7 37 8.5 W 13 20 7 11 1017.6 1016.7 0.0
20/09:00am 23.6 21.2 9.9 42 7.6 WNW 13 22 7 12 1017.8 1016.9 0.0
20/08:30am 22.6 19.8 10.1 45 6.9 WNW 15 26 8 14 1017.6 1016.7 0.0
20/08:00am 21.6 18.4 10.1 48 6.3 WSW 17 22 9 12 1017.4 1016.5 0.0
20/07:30am 20.1 17.7 10.2 53 5.4 WSW 13 19 7 10 1017.2 1016.3 0.0
20/07:00am 17.2 16.0 10.3 64 3.7 WNW 7 11 4 6 1016.6 1015.8 0.0
20/06:30am 13.5 11.9 8.8 73 2.4 W 7 9 4 5 1016.0 1015.2 0.0
20/06:00am 13.2 11.7 8.5 73 2.4 W 6 7 3 4 1015.6 1014.7 0.0
20/05:30am 13.2 11.7 9.1 76 2.1 WSW 7 9 4 5 1015.4 1014.5 0.0
20/05:00am 13.2 12.8 8.3 72 2.5 CALM 0 0 0 0 1015.1 1014.2 0.0
20/04:30am 13.3 12.9 8.2 71 2.6 CALM 0 0 0 0 1014.7 1013.8 0.0
20/04:00am 14.4 12.9 8.6 68 3.0 NNE 6 6 3 3 1014.7 1013.8 0.0
20/03:30am 15.1 13.5 8.6 65 3.3 NNE 7 9 4 5 1014.7 1013.8 0.0
20/03:00am 15.0 14.8 8.9 67 3.1 CALM 0 0 0 0 1014.7 1013.8 0.0
20/02:30am 15.0 14.6 8.3 64 3.4 CALM 0 0 0 0 1015.1 1014.2 0.0
20/02:00am 14.9 14.4 7.9 63 3.5 CALM 0 0 0 0 1015.2 1014.3 0.0
20/01:30am 15.5 15.0 8.0 61 3.8 CALM 0 0 0 0 1015.5 1014.6 0.0
20/01:00am 17.0 16.7 8.7 58 4.3 CALM 0 0 0 0 1015.7 1014.9 0.0
20/12:30am 17.5 17.3 8.9 57 4.5 CALM 0 0 0 0 1016.0 1015.2 0.0
20/12:00am 17.0 16.5 7.9 55 4.7 CALM 0 0 0 0 1016.3 1015.5 0.0
 
Date/Time
EST
Temp
°C
App
Temp
°C
Dew
Point
°C
Rel
Hum
%
Delta-T
°C
Wind Press
QNH
hPa
Press
MSL
hPa
Rain since
9am
mm
Dir  Spd
km/h
Gust
km/h
Spd
kts
Gust
kts
19/11:30pm 19.6 17.7 9.2 51 5.5 NNE 9 9 5 5 1016.2 1015.4 0.0
19/11:00pm 19.0 17.5 8.6 51 5.5 N 6 7 3 4 1016.3 1015.5 0.0
19/10:30pm 19.2 17.5 8.2 49 5.7 NNE 7 11 4 6 1016.3 1015.5 0.0
19/10:00pm 19.5 18.6 9.1 51 5.5 NNE 4 6 2 3 1016.1 1015.3 0.0
19/09:30pm 21.4 19.6 9.3 46 6.5 ESE 9 13 5 7 1015.9 1015.1 0.0
19/09:00pm 22.2 20.0 9.4 44 6.9 E 11 17 6 9 1015.8 1015.0 0.0
19/08:30pm 23.5 19.8 9.5 41 7.7 ENE 19 26 10 14 1015.4 1014.5 0.0
19/08:00pm 24.2 21.1 9.0 38 8.3 NE 15 20 8 11 1014.9 1014.0 0.0
19/07:30pm 25.1 21.1 9.0 36 8.8 NE 20 28 11 15 1014.6 1013.7 0.0
19/07:00pm 26.4 22.0 8.8 33 9.7 E 22 33 12 18 1014.0 1013.1 0.0
19/06:58pm 26.4 22.3 8.8 33 9.7 E 20 33 11 18 1014.0 1013.1 0.0
19/06:30pm 25.9 23.0 6.5 29 10.2 ESE 11 13 6 7 1013.6 1012.7 0.0
19/06:00pm 28.2 25.3 6.3 25 11.7 ESE 11 17 6 9 1013.2 1012.3 0.0

Other Formats:

Comma delimited format used in spreadsheet applications
http://www.bom.gov.au/fwo/IDQ60801/IDQ60801.94397.axf

JavaScript Object Notation format (JSON) in row-major order
http://www.bom.gov.au/fwo/IDQ60801/IDQ60801.94397.json